Aérodrome :
LOGIN :

S'inscrire | Disclaimer

   EN    FR    IT 

 










Légende :    VFR   VFR Marginal   IFR   IFR Intensif   IFR Très Intensif
Visi : 
Plafond : 
>= 8 km
>= 3000ft
5 à 8 km
1000 à 3000 ft
1500m à 5 km
500 à 1000 ft
800 à 1500m
200 à 500 ft
< 800m
< 200 ft
Symboles :   Orages  Brouillard  Fortes neiges  Fortes précipitations  Vent > 20 kt
SIGMETs :   Divers  Orages  Givrage  Turbulence  Onde Orograph.  Cendres Volcan.






- Altitude de l'aérodrome : -13 ft
- Code IATA : LEY


EHLE - Lelystad

DERNIER METAR :
  • 290625Z AUTO 02015KT 9999 NCD 05/M01 Q1029

METARs EXPIRÉS :
  • 290555Z AUTO 01015KT 9999 NCD 04/M01 Q1029
  • 290525Z AUTO 02013KT 350V060 9999 NCD 04/M01 Q1028
  • 290455Z AUTO 02015KT 340V040 9999 NCD 05/M01 Q1028
  • 290425Z AUTO 02013KT 350V060 9999 NCD 05/M01 Q1028
  • 290355Z AUTO 01011KT 340V040 9999 NCD 05/01 Q1028
  • 290325Z AUTO 01014KT 9999 FEW029 05/01 Q1027

TAF TAF EHLE
Valide du 29 à 06h jusqu'au 30 à 12h UTC


290500Z 2906/3012 36013KT 9999 SCT030
BECMG 2906/2909 03022G35KT
BECMG 2916/2919 03015G28KT CAVOK
BECMG 2919/2922 36007KT
PROB40
TEMPO 3007/3012 7000 -SHRA -RA FEW020CB BKN030
BECMG 3008/3011 34012KT SCT025



MET'MAP, la Météo Aéronautique d'un coup d'oeil ! - Copyright ORBIFLY Décembre 2007 - Disclaimer

ORBIFLY MET'MAP TEAM :

Programmation & Développement : Alexandra Zaïnal
Sur une idée originale de : Baudouin d'Aumeries
Assistance à la programmation : Marc-Olivier Méhu
Soutien technique & logistique : Manuel Goepfert

Contact : metmap@orbifly.com




SOURCES & CREDITS :

   NOAA